Time;durP1;ratioP1;P1;durP2;ratioP2;P2;SDS_P1;SDS_P2;PMS_P1;PMS_P2;Temp;Humidity;BMP_temperature;BMP_pressure;BME280_temperature;BME280_humidity;BME280_pressure;Samples;Min_cycle;Max_cycle;Signal;HPM_P1;HPM_P2
2024/04/20 00:02:16;;;;;;;108.37;102.10;;;18.10;82.50;;;;;;5371305;26;20727;-70
2024/04/20 00:04:48;;;;;;;98.10;92.20;;;18.30;82.50;;;;;;5369936;26;20623;-70
2024/04/20 00:07:15;;;;;;;85.80;80.80;;;18.70;81.60;;;;;;5371767;26;20322;-70
2024/04/20 00:09:43;;;;;;;81.07;76.17;;;19.00;80.60;;;;;;5369035;26;20234;-70
2024/04/20 00:12:10;;;;;;;68.47;64.53;;;19.20;80.90;;;;;;5369279;26;20310;-70
2024/04/20 00:14:37;;;;;;;64.20;60.10;;;19.50;79.20;;;;;;5367996;26;20246;-71
2024/04/20 00:17:05;;;;;;;71.07;66.67;;;19.30;79.00;;;;;;5368344;26;20330;-70
2024/04/20 00:19:32;;;;;;;77.20;72.13;;;19.00;80.80;;;;;;5371466;26;20573;-72
2024/04/20 00:22:00;;;;;;;92.60;87.43;;;18.80;80.80;;;;;;5368663;26;20284;-71
2024/04/20 00:24:28;;;;;;;128.07;121.07;;;18.60;81.70;;;;;;5374363;26;20242;-71
2024/04/20 00:26:55;;;;;;;150.50;142.13;;;18.20;83.90;;;;;;5372322;26;20366;-70
2024/04/20 00:29:22;;;;;;;197.67;187.50;;;17.80;85.00;;;;;;5374166;26;20248;-71
2024/04/20 00:31:50;;;;;;;229.40;217.67;;;17.60;86.20;;;;;;5367214;26;20296;-69
2024/04/20 00:34:18;;;;;;;262.20;249.30;;;17.60;87.30;;;;;;5367129;26;20246;-71
2024/04/20 00:36:46;;;;;;;314.80;299.33;;;17.30;87.70;;;;;;5375935;26;20290;-70
2024/04/20 00:39:13;;;;;;;331.93;315.83;;;17.20;89.00;;;;;;5375931;26;20288;-70
2024/04/20 00:41:45;;;;;;;348.33;331.47;;;17.00;89.20;;;;;;5370018;26;20289;-69
2024/04/20 00:44:13;;;;;;;380.77;362.47;;;16.90;89.40;;;;;;5363623;26;20246;-72
2024/04/20 00:46:41;;;;;;;414.57;394.07;;;16.80;89.90;;;;;;5367179;26;20330;-71
2024/04/20 00:49:10;;;;;;;380.03;361.43;;;16.80;90.20;;;;;;5373547;26;20408;-71
2024/04/20 00:51:38;;;;;;;412.73;392.27;;;16.80;90.00;;;;;;5371737;26;20610;-72
2024/04/20 00:54:06;;;;;;;433.43;412.03;;;16.80;90.20;;;;;;5376378;26;20292;-70
2024/04/20 00:56:35;;;;;;;458.87;436.37;;;16.70;90.20;;;;;;5363158;26;20287;-72
2024/04/20 00:59:03;;;;;;;476.00;452.37;;;16.80;90.60;;;;;;5331835;26;20632;-71
2024/04/20 01:01:30;;;;;;;479.53;454.60;;;16.80;90.00;;;;;;5366784;26;20529;-70
2024/04/20 01:03:58;;;;;;;484.33;460.13;;;17.00;90.60;;;;;;5354969;26;20280;-70
2024/04/20 01:06:25;;;;;;;470.93;446.73;;;17.10;90.30;;;;;;5360752;26;20373;-70
2024/04/20 01:08:56;;;;;;;453.80;430.60;;;17.30;90.60;;;;;;5366668;26;20643;-69
2024/04/20 01:11:24;;;;;;;450.87;428.60;;;17.40;89.90;;;;;;5369071;26;20229;-69
2024/04/20 01:13:52;;;;;;;436.90;414.97;;;17.50;89.60;;;;;;5370238;26;20267;-70
2024/04/20 01:16:20;;;;;;;437.33;415.43;;;17.50;89.40;;;;;;5366194;26;20732;-71
2024/04/20 01:18:47;;;;;;;393.83;374.00;;;17.60;89.00;;;;;;5371904;26;20244;-71
2024/04/20 01:21:16;;;;;;;387.37;367.67;;;17.70;88.60;;;;;;5374675;26;20233;-69
2024/04/20 01:23:48;;;;;;;410.37;389.60;;;17.60;88.40;;;;;;5367415;26;20279;-70
2024/04/20 01:26:15;;;;;;;401.87;381.83;;;17.60;88.70;;;;;;5370646;26;20295;-70
2024/04/20 01:28:43;;;;;;;417.30;396.43;;;17.70;88.70;;;;;;5372738;26;20336;-71
2024/04/20 01:31:10;;;;;;;416.40;395.27;;;17.70;88.40;;;;;;5361519;26;20809;-70
2024/04/20 01:33:37;;;;;;;427.37;405.10;;;17.50;88.90;;;;;;5371350;26;20283;-71
2024/04/20 01:36:05;;;;;;;408.47;387.73;;;17.50;89.00;;;;;;5376121;26;20237;-71
2024/04/20 01:38:32;;;;;;;391.80;371.30;;;17.40;88.90;;;;;;5366547;26;20230;-71
2024/04/20 01:40:59;;;;;;;354.33;335.87;;;17.50;88.50;;;;;;5379184;26;20939;-69
2024/04/20 01:43:27;;;;;;;338.87;321.27;;;17.50;87.90;;;;;;5368578;26;20347;-71
2024/04/20 01:45:54;;;;;;;290.53;275.23;;;17.70;87.30;;;;;;5371933;26;20246;-71
2024/04/20 01:48:21;;;;;;;257.03;243.33;;;17.90;86.60;;;;;;5367752;26;20237;-72
2024/04/20 01:50:49;;;;;;;209.40;198.60;;;18.20;85.30;;;;;;5374758;26;20739;-72
2024/04/20 01:53:16;;;;;;;234.07;221.93;;;18.10;84.30;;;;;;5367049;26;20288;-68
2024/04/20 01:55:43;;;;;;;275.30;261.37;;;18.20;85.10;;;;;;5372211;26;20266;-72
2024/04/20 01:58:10;;;;;;;333.33;316.50;;;18.00;85.70;;;;;;5374330;26;20237;-70
2024/04/20 02:00:38;;;;;;;393.57;373.83;;;17.80;87.40;;;;;;5374377;26;20245;-73
2024/04/20 02:03:11;;;;;;;424.73;403.80;;;17.50;88.20;;;;;;5367255;26;20334;-71
2024/04/20 02:05:41;;;;;;;460.77;437.63;;;17.30;89.40;;;;;;5371095;26;20840;-69
2024/04/20 02:08:09;;;;;;;456.80;433.83;;;17.20;89.70;;;;;;5373298;26;20244;-70
2024/04/20 02:10:36;;;;;;;439.10;417.10;;;17.20;89.90;;;;;;5372344;26;20287;-71
2024/04/20 02:13:04;;;;;;;467.77;444.30;;;17.10;89.90;;;;;;5382591;26;20736;-70
2024/04/20 02:15:31;;;;;;;502.67;477.37;;;17.20;90.40;;;;;;5370811;26;20287;-71
2024/04/20 02:17:58;;;;;;;475.80;451.77;;;17.30;90.60;;;;;;5362425;26;20597;-71
2024/04/20 02:20:26;;;;;;;499.77;474.10;;;17.00;90.30;;;;;;5365033;26;20815;-70
2024/04/20 02:22:53;;;;;;;524.53;497.33;;;16.90;90.50;;;;;;5364404;26;20299;-73
2024/04/20 02:25:20;;;;;;;503.47;477.97;;;17.00;91.00;;;;;;5371256;26;20245;-71
2024/04/20 02:27:48;;;;;;;505.00;478.30;;;17.00;90.80;;;;;;5371413;26;20411;-72
2024/04/20 02:30:16;;;;;;;525.77;497.70;;;17.20;90.70;;;;;;5377610;26;20283;-72
2024/04/20 02:32:43;;;;;;;510.03;483.93;;;17.20;90.40;;;;;;5378981;26;20248;-70
2024/04/20 02:35:11;;;;;;;518.30;491.90;;;17.10;90.00;;;;;;5368922;26;20304;-72
2024/04/20 02:37:38;;;;;;;539.10;511.00;;;17.30;90.20;;;;;;5374828;26;20252;-71
2024/04/20 02:40:06;;;;;;;539.83;512.23;;;17.30;90.20;;;;;;5380674;26;20622;-70
2024/04/20 02:42:33;;;;;;;515.00;488.57;;;17.30;90.00;;;;;;5374056;26;20232;-71
2024/04/20 02:45:02;;;;;;;509.07;481.93;;;17.30;89.80;;;;;;5375330;26;20268;-72
2024/04/20 02:47:29;;;;;;;507.47;481.43;;;17.40;89.40;;;;;;5378668;26;20283;-71
2024/04/20 02:49:56;;;;;;;483.73;458.17;;;17.50;89.10;;;;;;5379080;26;20665;-70
2024/04/20 02:52:24;;;;;;;483.87;459.13;;;17.60;89.00;;;;;;5382594;26;20807;-69
2024/04/20 02:54:51;;;;;;;485.67;460.40;;;17.70;88.70;;;;;;5380396;26;20452;-72
2024/04/20 02:57:18;;;;;;;457.77;433.90;;;17.70;88.40;;;;;;5371009;26;20233;-71
2024/04/20 02:59:48;;;;;;;397.70;377.20;;;17.80;88.00;;;;;;5368926;26;20241;-72
2024/04/20 03:02:16;;;;;;;371.27;352.27;;;18.00;87.10;;;;;;5370736;26;20282;-69
2024/04/20 03:04:43;;;;;;;325.20;308.80;;;18.30;86.40;;;;;;5377368;26;20285;-69
2024/04/20 03:07:11;;;;;;;304.83;289.03;;;18.40;85.60;;;;;;5370420;26;20234;-72
2024/04/20 03:09:38;;;;;;;233.40;221.30;;;18.50;84.80;;;;;;5375112;26;20324;-71
2024/04/20 03:12:07;;;;;;;210.60;199.50;;;18.60;83.80;;;;;;5368739;26;20241;-71
2024/04/20 03:14:34;;;;;;;196.87;186.73;;;18.80;83.50;;;;;;5364865;26;20272;-69
2024/04/20 03:17:02;;;;;;;180.03;170.03;;;18.90;83.40;;;;;;5378271;26;20233;-73
2024/04/20 03:19:29;;;;;;;197.50;187.13;;;18.80;83.20;;;;;;5368848;26;20248;-70
2024/04/20 03:21:56;;;;;;;176.13;166.73;;;18.80;83.80;;;;;;5379972;26;20286;-71
2024/04/20 03:24:23;;;;;;;168.43;159.17;;;18.60;83.40;;;;;;5374760;26;20238;-70
2024/04/20 03:26:51;;;;;;;170.53;161.33;;;18.50;83.80;;;;;;5372660;26;20234;-71
2024/04/20 03:29:20;;;;;;;179.83;170.20;;;18.50;83.80;;;;;;5373821;26;20238;-72
2024/04/20 03:31:48;;;;;;;172.77;162.93;;;18.50;84.00;;;;;;5368503;26;20768;-72
2024/04/20 03:34:16;;;;;;;184.33;174.20;;;18.60;84.00;;;;;;5378684;26;20257;-70
2024/04/20 03:36:43;;;;;;;212.40;201.10;;;18.40;84.00;;;;;;5372528;26;20249;-71
2024/04/20 03:39:11;;;;;;;260.00;246.50;;;18.10;84.90;;;;;;5375182;26;20723;-71
2024/04/20 03:41:39;;;;;;;305.80;290.50;;;17.90;86.20;;;;;;5348301;26;20589;-71
2024/04/20 03:44:07;;;;;;;304.17;288.93;;;17.90;87.20;;;;;;5371297;26;20230;-70
2024/04/20 03:46:34;;;;;;;303.53;288.27;;;17.90;87.10;;;;;;5369449;26;20292;-70
2024/04/20 03:49:01;;;;;;;285.07;270.70;;;18.00;86.90;;;;;;5378697;26;20232;-71
2024/04/20 03:51:29;;;;;;;253.50;241.23;;;18.20;86.60;;;;;;5365424;26;20794;-70
2024/04/20 03:53:56;;;;;;;250.83;238.17;;;18.30;86.30;;;;;;5366111;26;20242;-70
2024/04/20 03:56:23;;;;;;;218.47;207.27;;;18.60;86.30;;;;;;5376133;26;20293;-71
2024/04/20 03:58:51;;;;;;;201.50;190.63;;;18.70;85.00;;;;;;5371214;26;20235;-71
2024/04/20 04:01:18;;;;;;;209.57;198.70;;;18.60;84.70;;;;;;5372233;26;20291;-70
2024/04/20 04:03:46;;;;;;;195.53;185.13;;;18.70;85.20;;;;;;5363176;26;20231;-70
2024/04/20 04:06:13;;;;;;;202.87;191.87;;;18.60;84.90;;;;;;5370722;26;20253;-71
2024/04/20 04:08:43;;;;;;;190.17;179.57;;;18.60;84.60;;;;;;5368391;26;20242;-71
2024/04/20 04:11:10;;;;;;;190.23;180.03;;;18.70;84.40;;;;;;5369469;26;20365;-71
2024/04/20 04:13:38;;;;;;;168.17;158.83;;;18.70;84.40;;;;;;5372964;26;20285;-71
2024/04/20 04:16:06;;;;;;;150.13;141.13;;;18.70;84.10;;;;;;5365998;26;20341;-73
2024/04/20 04:18:33;;;;;;;137.97;130.40;;;18.80;83.20;;;;;;5377816;26;20243;-71
2024/04/20 04:21:00;;;;;;;140.67;132.60;;;18.80;82.30;;;;;;5365404;26;20261;-71
2024/04/20 04:23:28;;;;;;;150.67;142.00;;;18.80;82.70;;;;;;5361005;26;20573;-70
2024/04/20 04:25:55;;;;;;;182.83;172.80;;;18.80;83.10;;;;;;5370984;26;20237;-71
2024/04/20 04:28:22;;;;;;;182.30;171.90;;;18.70;83.70;;;;;;5364368;26;20578;-71
2024/04/20 04:30:50;;;;;;;192.73;182.27;;;18.40;84.10;;;;;;5368652;26;20349;-71
2024/04/20 04:33:20;;;;;;;214.17;202.97;;;18.30;84.50;;;;;;5365825;26;20370;-69
2024/04/20 04:35:47;;;;;;;203.43;193.13;;;18.30;85.00;;;;;;5362679;26;20284;-70
2024/04/20 04:38:15;;;;;;;212.87;201.57;;;18.40;84.90;;;;;;5365531;26;20809;-71
2024/04/20 04:40:42;;;;;;;219.33;208.23;;;18.50;84.80;;;;;;5370458;26;20308;-70
2024/04/20 04:43:09;;;;;;;229.90;217.97;;;18.30;84.60;;;;;;5374121;26;20725;-70
2024/04/20 04:45:36;;;;;;;233.90;221.67;;;18.20;85.40;;;;;;5371501;26;20895;-70
2024/04/20 04:48:04;;;;;;;180.80;171.57;;;18.30;85.80;;;;;;5365690;26;20288;-69
2024/04/20 04:50:31;;;;;;;99.43;94.00;;;18.60;84.70;;;;;;5370841;26;20277;-70
2024/04/20 04:52:59;;;;;;;74.67;70.00;;;19.20;81.90;;;;;;5369021;26;20229;-72
2024/04/20 04:55:29;;;;;;;78.47;72.97;;;19.50;80.50;;;;;;5369122;26;20339;-70
2024/04/20 04:57:56;;;;;;;90.67;85.33;;;19.60;80.80;;;;;;5368334;26;20763;-71
2024/04/20 05:00:23;;;;;;;92.73;87.43;;;19.20;81.60;;;;;;5368467;26;20272;-71
2024/04/20 05:02:51;;;;;;;87.40;81.87;;;19.30;82.20;;;;;;5363387;26;20276;-70
2024/04/20 05:05:19;;;;;;;73.47;69.07;;;19.30;81.20;;;;;;5374272;26;20280;-71
2024/04/20 05:07:47;;;;;;;121.50;114.53;;;19.30;80.70;;;;;;5372864;26;20230;-72
2024/04/20 05:10:14;;;;;;;179.20;169.30;;;18.90;82.90;;;;;;5374024;26;20232;-72
2024/04/20 05:12:41;;;;;;;229.57;217.30;;;18.60;84.40;;;;;;5362825;26;20639;-71
2024/04/20 05:15:09;;;;;;;261.47;248.03;;;18.30;86.10;;;;;;5370459;26;20229;-70
2024/04/20 05:17:39;;;;;;;281.63;267.43;;;18.10;86.90;;;;;;5362444;26;20231;-70
2024/04/20 05:20:12;;;;;;;296.80;281.17;;;18.00;87.60;;;;;;5366708;26;20676;-70
2024/04/20 05:22:40;;;;;;;266.07;252.37;;;18.20;88.10;;;;;;5365176;26;20238;-70
2024/04/20 05:25:07;;;;;;;239.87;226.93;;;18.30;87.20;;;;;;5365700;26;20572;-69
2024/04/20 05:27:34;;;;;;;262.30;248.90;;;18.40;86.20;;;;;;5362878;26;20245;-71
2024/04/20 05:30:01;;;;;;;269.63;255.87;;;18.40;86.40;;;;;;5368083;26;20234;-69
2024/04/20 05:32:29;;;;;;;271.27;257.23;;;18.30;86.70;;;;;;5370838;26;20734;-72
2024/04/20 05:34:56;;;;;;;270.17;256.27;;;18.20;86.70;;;;;;5365630;26;20684;-73
2024/04/20 05:37:23;;;;;;;277.13;262.43;;;18.10;86.80;;;;;;5371091;26;20566;-69
2024/04/20 05:39:51;;;;;;;318.03;300.93;;;18.00;86.70;;;;;;5367868;26;20236;-69
2024/04/20 05:42:18;;;;;;;373.90;355.33;;;18.00;87.20;;;;;;5367026;26;20296;-70
2024/04/20 05:44:45;;;;;;;389.60;369.67;;;17.70;88.40;;;;;;5373397;26;20317;-73
2024/04/20 05:47:13;;;;;;;436.40;414.30;;;17.60;89.10;;;;;;5365660;26;20229;-71
2024/04/20 05:49:40;;;;;;;446.27;424.00;;;17.50;89.50;;;;;;5359646;26;20224;-70
2024/04/20 05:52:08;;;;;;;455.40;432.60;;;17.40;89.70;;;;;;5367789;26;20238;-72
2024/04/20 05:54:35;;;;;;;460.30;436.50;;;17.30;89.80;;;;;;5371656;26;20731;-71
2024/04/20 05:57:02;;;;;;;475.33;450.90;;;17.30;89.90;;;;;;5362568;26;20705;-71
2024/04/20 05:59:29;;;;;;;490.63;465.60;;;17.30;90.00;;;;;;5368620;26;20244;-70
2024/04/20 06:01:57;;;;;;;518.00;491.67;;;17.30;90.00;;;;;;5367728;26;20355;-70
2024/04/20 06:04:24;;;;;;;514.77;487.87;;;17.30;90.30;;;;;;5377799;26;20227;-70
2024/04/20 06:06:51;;;;;;;539.80;511.40;;;17.20;90.40;;;;;;5377375;26;20238;-71
2024/04/20 06:09:18;;;;;;;578.43;547.80;;;17.10;90.60;;;;;;5375799;26;20286;-70
2024/04/20 06:11:46;;;;;;;580.13;548.80;;;17.10;91.10;;;;;;5380431;26;20284;-72
2024/04/20 06:14:13;;;;;;;610.07;576.80;;;16.90;91.40;;;;;;5363754;26;20346;-70
2024/04/20 06:16:41;;;;;;;637.40;602.43;;;16.80;92.00;;;;;;5366748;26;20305;-70
2024/04/20 06:19:08;;;;;;;650.73;613.43;;;16.80;92.40;;;;;;5371653;26;20476;-71
2024/04/20 06:21:36;;;;;;;655.20;617.20;;;16.80;92.70;;;;;;5371970;26;20274;-70
2024/04/20 06:24:04;;;;;;;691.13;649.20;;;16.70;92.90;;;;;;5375348;26;20361;-73
2024/04/20 06:26:31;;;;;;;689.83;647.47;;;16.80;93.20;;;;;;5373431;26;20242;-71
2024/04/20 06:28:59;;;;;;;693.37;649.30;;;16.80;93.30;;;;;;5366663;26;20233;-74
2024/04/20 06:31:26;;;;;;;680.90;637.47;;;16.80;93.50;;;;;;5367334;26;20250;-72
2024/04/20 06:33:54;;;;;;;699.87;655.87;;;16.80;93.50;;;;;;5378048;26;20234;-72
2024/04/20 06:36:22;;;;;;;693.53;649.77;;;16.80;93.50;;;;;;5374436;26;20234;-72
2024/04/20 06:38:51;;;;;;;707.17;661.57;;;16.80;93.50;;;;;;5375353;26;20418;-72
2024/04/20 06:41:18;;;;;;;699.57;654.57;;;16.80;93.30;;;;;;5371505;26;20237;-72
2024/04/20 06:43:45;;;;;;;707.07;660.73;;;16.80;93.50;;;;;;5365564;26;20236;-72
2024/04/20 06:46:15;;;;;;;715.20;668.53;;;16.80;93.50;;;;;;5371193;26;20612;-71
2024/04/20 06:48:44;;;;;;;721.80;674.67;;;16.80;93.40;;;;;;5373445;26;20244;-72
2024/04/20 06:51:11;;;;;;;738.53;690.83;;;16.80;93.30;;;;;;5370293;26;20228;-72
2024/04/20 06:53:38;;;;;;;730.27;682.47;;;16.90;93.30;;;;;;5377422;26;20253;-72
2024/04/20 06:56:09;;;;;;;729.57;682.13;;;16.90;93.30;;;;;;5373248;26;20232;-72
2024/04/20 06:58:36;;;;;;;737.63;689.50;;;16.80;93.10;;;;;;5370112;26;20243;-73
2024/04/20 07:01:04;;;;;;;739.73;690.90;;;16.70;92.90;;;;;;5374866;26;20232;-70
2024/04/20 07:03:31;;;;;;;739.90;690.47;;;16.70;93.20;;;;;;5365358;26;20252;-69
2024/04/20 07:05:58;;;;;;;746.87;696.23;;;16.70;93.40;;;;;;5368868;26;20240;-69
2024/04/20 07:08:27;;;;;;;754.87;703.90;;;16.70;93.40;;;;;;5363865;26;20562;-70
2024/04/20 07:11:00;;;;;;;754.13;702.83;;;16.70;93.50;;;;;;5368638;26;20223;-70
2024/04/20 07:13:36;;;;;;;755.20;703.67;;;16.70;93.60;;;;;;5365036;26;20278;-70
2024/04/20 07:16:04;;;;;;;774.43;721.50;;;16.70;93.70;;;;;;5372111;26;20680;-70
2024/04/20 07:18:32;;;;;;;761.77;709.23;;;16.60;93.70;;;;;;5370742;26;20247;-70
2024/04/20 07:21:06;;;;;;;753.67;701.40;;;16.60;93.70;;;;;;5365632;26;20236;-70
2024/04/20 07:23:34;;;;;;;758.30;706.57;;;16.60;93.70;;;;;;5370441;26;20242;-71
2024/04/20 07:26:04;;;;;;;761.10;708.50;;;16.60;93.70;;;;;;5367589;26;20238;-69
2024/04/20 07:28:31;;;;;;;767.53;714.37;;;16.70;93.60;;;;;;5360489;26;20234;-70
2024/04/20 07:30:59;;;;;;;763.23;708.33;;;16.70;93.70;;;;;;5370412;26;20240;-72
2024/04/20 07:33:26;;;;;;;776.47;721.47;;;16.70;93.80;;;;;;5362241;26;20236;-73
2024/04/20 07:35:54;;;;;;;785.33;729.67;;;16.80;93.90;;;;;;5368095;26;20236;-70
2024/04/20 07:38:21;;;;;;;794.20;737.43;;;16.80;93.80;;;;;;5373990;26;20320;-72
2024/04/20 07:40:49;;;;;;;800.27;742.67;;;16.80;93.80;;;;;;5368567;26;20234;-71
2024/04/20 07:43:16;;;;;;;794.27;737.57;;;16.80;93.80;;;;;;5370601;26;20334;-72
2024/04/20 07:45:43;;;;;;;783.93;727.27;;;16.80;93.90;;;;;;5364976;26;20229;-71
2024/04/20 07:48:11;;;;;;;777.33;720.67;;;16.80;93.90;;;;;;5375501;26;20289;-71
2024/04/20 07:50:38;;;;;;;785.70;728.17;;;16.70;93.90;;;;;;5369532;26;20232;-72
2024/04/20 07:53:06;;;;;;;781.20;723.40;;;16.80;94.10;;;;;;5372688;26;20241;-71
2024/04/20 07:55:34;;;;;;;773.70;717.43;;;16.70;94.00;;;;;;5366746;26;22224;-71
2024/04/20 07:58:01;;;;;;;782.50;725.83;;;16.80;94.10;;;;;;5358244;26;20284;-72
2024/04/20 08:00:28;;;;;;;792.53;735.40;;;16.70;94.00;;;;;;5366710;26;20232;-70
2024/04/20 08:02:56;;;;;;;792.17;735.67;;;16.70;94.00;;;;;;5364695;26;20344;-71
2024/04/20 08:05:23;;;;;;;779.60;723.63;;;16.70;93.90;;;;;;5371661;26;20239;-72
2024/04/20 08:07:50;;;;;;;786.57;730.10;;;16.70;93.80;;;;;;5370164;26;20256;-72
2024/04/20 08:10:17;;;;;;;791.53;735.23;;;16.70;93.80;;;;;;5370036;26;20233;-71
2024/04/20 08:12:45;;;;;;;786.97;730.77;;;16.70;93.70;;;;;;5364311;26;20298;-71
2024/04/20 08:15:12;;;;;;;791.40;734.20;;;16.70;93.70;;;;;;5359714;26;20284;-71
2024/04/20 08:17:39;;;;;;;789.17;732.67;;;16.80;93.60;;;;;;5362579;26;20242;-71
2024/04/20 08:20:08;;;;;;;786.50;729.90;;;16.80;93.60;;;;;;5370151;26;20332;-71
2024/04/20 08:22:36;;;;;;;774.07;719.67;;;16.70;93.40;;;;;;5368853;26;20567;-72
2024/04/20 08:25:04;;;;;;;763.60;710.97;;;16.70;93.20;;;;;;5361782;26;20798;-71
2024/04/20 08:27:31;;;;;;;760.67;708.07;;;16.70;93.00;;;;;;5372675;26;20293;-71
2024/04/20 08:29:59;;;;;;;751.97;699.77;;;16.70;92.70;;;;;;5366281;26;20243;-71
2024/04/20 08:32:26;;;;;;;769.93;717.50;;;16.70;92.50;;;;;;5373494;26;20301;-71
2024/04/20 08:34:53;;;;;;;762.70;711.40;;;16.80;92.30;;;;;;5372863;26;20243;-71
2024/04/20 08:37:21;;;;;;;766.23;715.37;;;16.80;92.00;;;;;;5369378;26;20256;-71
2024/04/20 08:39:48;;;;;;;757.03;706.67;;;16.80;91.90;;;;;;5366315;26;20239;-71
2024/04/20 08:42:29;;;;;;;724.97;679.00;;;16.90;91.60;;;;;;5363996;26;20277;-71
2024/04/20 08:44:56;;;;;;;641.23;603.70;;;16.80;90.60;;;;;;5371929;26;20591;-71
2024/04/20 08:47:24;;;;;;;578.10;544.77;;;16.90;89.10;;;;;;5372382;26;20545;-72
2024/04/20 08:49:51;;;;;;;565.93;534.43;;;17.00;87.90;;;;;;5344521;26;20273;-71
2024/04/20 08:52:20;;;;;;;495.53;467.27;;;17.20;86.90;;;;;;5372867;26;20667;-72
2024/04/20 08:54:50;;;;;;;499.30;471.47;;;17.30;85.80;;;;;;5380258;26;20547;-71
2024/04/20 08:57:22;;;;;;;442.60;418.47;;;17.40;85.20;;;;;;5373782;26;20237;-71
2024/04/20 08:59:50;;;;;;;423.63;400.57;;;17.60;84.80;;;;;;5363024;26;20569;-72
2024/04/20 09:02:27;;;;;;;396.93;375.40;;;17.70;84.60;;;;;;5366823;26;20268;-71
2024/04/20 09:04:58;;;;;;;390.17;369.63;;;17.70;84.40;;;;;;5373114;26;20233;-71
2024/04/20 09:07:29;;;;;;;370.03;350.60;;;17.70;84.40;;;;;;5370536;26;20782;-71
2024/04/20 09:09:57;;;;;;;307.93;291.27;;;17.80;84.10;;;;;;5359207;26;20348;-72
2024/04/20 09:12:24;;;;;;;305.13;288.87;;;17.80;83.10;;;;;;5372312;26;20297;-71
2024/04/20 09:14:58;;;;;;;265.50;251.80;;;17.90;83.20;;;;;;5370466;26;20292;-71
2024/04/20 09:17:25;;;;;;;273.90;259.93;;;17.90;82.80;;;;;;5364973;26;20282;-71
2024/04/20 09:19:56;;;;;;;292.13;276.40;;;17.90;82.90;;;;;;5376700;26;20281;-70
2024/04/20 09:22:23;;;;;;;273.87;259.20;;;17.80;83.30;;;;;;5367853;26;20821;-72
2024/04/20 09:25:03;;;;;;;253.00;239.47;;;17.80;83.30;;;;;;5362947;26;20239;-70
2024/04/20 09:27:32;;;;;;;228.43;216.03;;;17.70;83.10;;;;;;5370777;26;20234;-71
2024/04/20 09:30:06;;;;;;;208.43;197.07;;;17.70;82.90;;;;;;5373388;26;20237;-70
2024/04/20 09:32:34;;;;;;;188.07;177.40;;;17.70;82.60;;;;;;5362922;26;20282;-72
2024/04/20 09:35:03;;;;;;;183.13;172.87;;;17.70;81.90;;;;;;5365945;26;20635;-71
2024/04/20 09:37:31;;;;;;;140.30;132.17;;;17.80;81.80;;;;;;5371518;26;20350;-70
2024/04/20 09:39:58;;;;;;;133.47;125.87;;;17.80;80.80;;;;;;5370843;26;20241;-70
2024/04/20 09:42:28;;;;;;;124.07;116.57;;;18.00;80.30;;;;;;5368108;26;20351;-71
2024/04/20 09:44:56;;;;;;;131.40;123.43;;;18.00;79.70;;;;;;5363792;26;20350;-70
2024/04/20 09:47:26;;;;;;;120.40;112.93;;;18.00;80.00;;;;;;5369879;26;20844;-70
2024/04/20 09:49:54;;;;;;;111.83;104.97;;;18.00;79.60;;;;;;5374291;26;20238;-70
2024/04/20 09:52:39;;;;;;;118.33;111.40;;;18.10;79.80;;;;;;5364477;26;20565;-70
2024/04/20 09:55:09;;;;;;;104.10;97.87;;;18.10;80.10;;;;;;5368218;26;20241;-71
2024/04/20 09:57:40;;;;;;;105.37;98.93;;;18.10;79.60;;;;;;5371602;26;20301;-70
2024/04/20 10:00:10;;;;;;;105.23;99.30;;;18.10;79.60;;;;;;5362627;26;20247;-71
2024/04/20 10:02:38;;;;;;;103.87;96.90;;;18.10;79.90;;;;;;5365876;26;20857;-71
2024/04/20 10:05:06;;;;;;;85.67;79.63;;;18.10;79.90;;;;;;5371341;26;20280;-72
2024/04/20 10:07:35;;;;;;;83.90;77.97;;;18.10;79.20;;;;;;5369269;26;20245;-71
2024/04/20 10:10:04;;;;;;;70.57;66.07;;;18.20;79.20;;;;;;5364969;26;20280;-72
2024/04/20 10:12:32;;;;;;;60.70;56.27;;;18.20;78.60;;;;;;5368123;26;20245;-70
2024/04/20 10:15:00;;;;;;;55.90;51.63;;;18.20;77.60;;;;;;5362408;26;20240;-70
2024/04/20 10:17:28;;;;;;;61.50;56.67;;;18.20;77.00;;;;;;5369781;26;20287;-71
2024/04/20 10:19:57;;;;;;;55.57;51.20;;;18.30;77.40;;;;;;5366379;26;20341;-72
2024/04/20 10:22:25;;;;;;;48.77;45.00;;;18.30;77.10;;;;;;5367726;26;20246;-71
2024/04/20 10:24:57;;;;;;;49.33;45.27;;;18.30;76.50;;;;;;5367746;26;20247;-71
2024/04/20 10:27:30;;;;;;;39.80;36.63;;;18.30;76.60;;;;;;5363302;26;20301;-71
2024/04/20 10:30:08;;;;;;;33.60;30.63;;;18.30;75.70;;;;;;5371109;26;20250;-71
2024/04/20 10:32:36;;;;;;;35.20;31.87;;;18.30;75.60;;;;;;5370092;26;20245;-71
2024/04/20 10:35:08;;;;;;;37.73;34.37;;;18.30;75.80;;;;;;5373873;26;20336;-71
2024/04/20 10:37:38;;;;;;;40.37;37.20;;;18.20;76.00;;;;;;5367062;26;20295;-72
2024/04/20 10:40:13;;;;;;;38.20;35.30;;;18.10;76.50;;;;;;5372082;26;20231;-70
2024/04/20 10:42:44;;;;;;;39.50;35.87;;;18.10;76.40;;;;;;5372388;26;20346;-72
2024/04/20 10:45:13;;;;;;;32.67;29.80;;;18.00;76.40;;;;;;5371083;26;20236;-71
2024/04/20 10:47:40;;;;;;;27.33;24.93;;;17.90;76.10;;;;;;5372745;26;20235;-69
2024/04/20 10:50:10;;;;;;;22.73;20.47;;;17.90;74.50;;;;;;5365745;26;20280;-71
2024/04/20 10:52:38;;;;;;;27.03;24.40;;;17.90;74.20;;;;;;5374730;26;20282;-71
2024/04/20 10:55:15;;;;;;;27.57;22.00;;;17.90;75.00;;;;;;5376636;26;20619;-71
2024/04/20 10:57:43;;;;;;;24.10;21.47;;;17.90;75.00;;;;;;5378952;26;20282;-71
2024/04/20 11:00:11;;;;;;;21.17;19.43;;;17.90;74.80;;;;;;5373904;26;20711;-71
2024/04/20 11:02:39;;;;;;;22.97;20.77;;;17.90;74.60;;;;;;5371698;26;20289;-69
2024/04/20 11:05:10;;;;;;;22.37;19.83;;;18.00;75.00;;;;;;5368023;26;20348;-72
2024/04/20 11:07:37;;;;;;;23.07;20.10;;;18.10;75.00;;;;;;5344028;26;20599;-71
2024/04/20 11:10:05;;;;;;;28.43;25.73;;;18.20;75.60;;;;;;5374524;26;20241;-71
2024/04/20 11:12:32;;;;;;;29.37;26.33;;;18.20;76.40;;;;;;5372911;26;20234;-72
2024/04/20 11:15:02;;;;;;;22.63;20.40;;;18.10;76.90;;;;;;5373372;26;20244;-71
2024/04/20 11:17:30;;;;;;;18.97;16.83;;;18.00;75.70;;;;;;5371294;26;20230;-70
2024/04/20 11:19:59;;;;;;;18.63;12.77;;;18.00;74.60;;;;;;5369374;26;20307;-72
2024/04/20 11:22:31;;;;;;;14.87;10.33;;;18.00;73.70;;;;;;5369497;26;20579;-71
2024/04/20 11:25:11;;;;;;;11.77;7.97;;;18.00;72.80;;;;;;5366251;26;20242;-71
2024/04/20 11:27:38;;;;;;;8.43;6.37;;;18.00;72.00;;;;;;5376158;26;20227;-71
2024/04/20 11:30:07;;;;;;;15.47;6.37;;;18.00;72.10;;;;;;5380516;26;20828;-71
2024/04/20 11:32:35;;;;;;;12.17;5.60;;;18.00;71.70;;;;;;5375576;26;20592;-71
2024/04/20 11:35:16;;;;;;;11.77;5.70;;;17.90;71.60;;;;;;5379832;26;20712;-71
2024/04/20 11:37:44;;;;;;;11.90;4.50;;;18.00;71.80;;;;;;5373196;26;20696;-71
2024/04/20 11:40:11;;;;;;;17.23;4.70;;;17.80;71.70;;;;;;5374714;26;20775;-71
2024/04/20 11:42:42;;;;;;;14.27;4.07;;;17.80;72.10;;;;;;5370142;26;20230;-70
2024/04/20 11:45:16;;;;;;;12.50;4.00;;;17.80;72.10;;;;;;5369144;26;20662;-71
2024/04/20 11:47:43;;;;;;;6.57;2.90;;;17.80;72.40;;;;;;5368720;26;20230;-71
2024/04/20 11:50:15;;;;;;;13.17;2.87;;;17.90;72.40;;;;;;5364620;26;20289;-71
2024/04/20 11:55:43;;;;;;;15.60;3.07;;;17.90;73.00;;;;;;5364356;26;20281;-71
2024/04/20 11:58:11;;;;;;;12.33;2.77;;;18.00;73.20;;;;;;5375527;26;20483;-71
2024/04/20 12:00:39;;;;;;;10.53;2.57;;;18.00;73.50;;;;;;5365626;26;20238;-71
2024/04/20 12:03:07;;;;;;;13.50;2.70;;;18.10;73.90;;;;;;5364695;26;20238;-71
2024/04/20 12:05:34;;;;;;;13.93;2.90;;;18.10;74.20;;;;;;5367524;26;20249;-71
2024/04/20 12:08:01;;;;;;;10.03;3.17;;;18.10;74.60;;;;;;5366081;26;20767;-71
2024/04/20 12:10:29;;;;;;;16.07;3.53;;;18.20;75.40;;;;;;5362591;26;20820;-70
2024/04/20 12:12:56;;;;;;;11.67;4.07;;;18.20;76.00;;;;;;5372386;26;20239;-70
2024/04/20 12:15:24;;;;;;;14.13;3.43;;;18.20;76.10;;;;;;5370212;26;20256;-72
2024/04/20 12:17:51;;;;;;;19.10;4.20;;;18.20;75.90;;;;;;5371802;26;20590;-71
2024/04/20 12:20:19;;;;;;;13.50;3.30;;;18.10;75.90;;;;;;5373045;26;20240;-71
2024/04/20 12:22:47;;;;;;;15.20;3.87;;;18.10;76.20;;;;;;5366798;26;20825;-72